< < Back
Terminal Aerodrome Forecast


Current Version              Previous Versions:   1  2  3  4  5  6  7  8  9  

Terminal Aerodrome Forecast

931
FTUS42 KMLB 160900 AAA
TAFMCO
TAF AMD
KMCO 160900Z 1609/1706 VRB03KT P6SM FEW120 BKN200
     FM161400 27005KT P6SM SCT030 BKN200
     FM161800 28007KT P6SM VCTS SCT040CB BKN080
      TEMPO 1618/1621 3SM TSRA BKN035CB OVC050
     FM170000 26004KT P6SM VCSH SCT080 OVC150=

Latest METAR

851
SAUS70 KWBC 162100 RRA
MTRMCO
METAR KMCO 162053Z 33004KT 10SM SCT045CB BKN070 BKN250 29/21 A2999 RMK
AO2 SLP153 VCSH NW CB NW AND DSNT SW-NW MOV E T02890211
56016


USA.gov is the U.S. government's official web portal to all federal, state and local government web resources and services.